Time,TemperatureF,DewpointF,PressureIn,WindDirection,WindDirectionDegrees,WindSpeedMPH,WindSpeedGustMPH,Humidity,HourlyPrecipIn,Conditions,Clouds,dailyrainin,SoftwareType,DateUTC
2013-07-26 00:02:00,60.0,56.0,30.15,NW,321,0.0,1.0,88,0.00,,,0.00,,2013-07-26 04:02:00,
2013-07-26 00:12:00,60.0,56.0,30.15,NW,321,0.0,0.0,88,0.00,,,0.00,,2013-07-26 04:12:00,
2013-07-26 00:23:00,59.0,55.0,30.16,North,355,0.0,4.0,88,0.00,,,0.00,,2013-07-26 04:23:00,
2013-07-26 00:32:00,59.0,55.0,30.16,North,355,0.0,4.0,88,0.00,,,0.00,,2013-07-26 04:32:00,
2013-07-26 00:53:00,59.0,56.0,30.16,North,355,0.0,0.0,89,0.00,,,0.00,,2013-07-26 04:53:00,
2013-07-26 01:02:00,59.0,56.0,30.16,North,355,0.0,0.0,90,0.00,,,0.00,,2013-07-26 05:02:00,
2013-07-26 01:12:00,59.0,56.0,30.16,North,355,0.0,1.0,90,0.00,,,0.00,,2013-07-26 05:12:00,
2013-07-26 01:22:00,59.0,56.0,30.17,North,355,0.0,0.0,90,0.00,,,0.00,,2013-07-26 05:22:00,
2013-07-26 01:32:00,59.0,56.0,30.17,North,355,0.0,0.0,90,0.00,,,0.00,,2013-07-26 05:32:00,
2013-07-26 01:43:00,59.0,56.0,30.17,North,355,0.0,0.0,90,0.00,,,0.00,,2013-07-26 05:43:00,
2013-07-26 01:52:00,59.0,56.0,30.17,North,355,0.0,0.0,90,0.00,,,0.00,,2013-07-26 05:52:00,
2013-07-26 02:02:00,58.0,55.0,30.17,North,355,0.0,0.0,90,0.00,,,0.00,,2013-07-26 06:02:00,
2013-07-26 02:12:00,58.0,55.0,30.16,North,355,0.0,0.0,90,0.00,,,0.00,,2013-07-26 06:12:00,
2013-07-26 02:22:00,57.0,54.0,30.16,North,355,0.0,0.0,90,0.00,,,0.00,,2013-07-26 06:22:00,
2013-07-26 02:33:00,57.0,54.0,30.15,North,355,0.0,0.0,91,0.00,,,0.00,,2013-07-26 06:33:00,
2013-07-26 02:43:00,58.0,56.0,30.15,North,355,0.0,0.0,92,0.00,,,0.00,,2013-07-26 06:43:00,
2013-07-26 02:52:00,57.0,54.0,30.15,North,355,0.0,0.0,91,0.00,,,0.00,,2013-07-26 06:52:00,
2013-07-26 03:02:00,57.0,54.0,30.15,North,355,0.0,0.0,91,0.00,,,0.00,,2013-07-26 07:02:00,
2013-07-26 03:32:00,59.0,56.0,30.14,SSE,151,0.0,3.0,91,0.00,,,0.00,,2013-07-26 07:32:00,
2013-07-26 03:43:00,59.0,56.0,30.14,SSE,151,0.0,3.0,91,0.00,,,0.00,,2013-07-26 07:43:00,
2013-07-26 03:53:00,58.0,55.0,30.14,SSE,151,0.0,2.0,90,0.00,,,0.00,,2013-07-26 07:53:00,
2013-07-26 04:02:00,58.0,55.0,30.14,SSE,151,0.0,0.0,90,0.00,,,0.00,,2013-07-26 08:02:00,
2013-07-26 04:12:00,57.0,54.0,30.14,SSE,150,0.0,0.0,90,0.00,,,0.00,,2013-07-26 08:12:00,
2013-07-26 04:22:00,57.0,54.0,30.14,SSE,150,0.0,0.0,90,0.00,,,0.00,,2013-07-26 08:22:00,
2013-07-26 04:32:00,57.0,54.0,30.13,SSE,151,0.0,2.0,90,0.00,,,0.00,,2013-07-26 08:32:00,
2013-07-26 04:44:00,56.0,53.0,30.13,SSE,151,0.0,1.0,91,0.00,,,0.00,,2013-07-26 08:44:00,
2013-07-26 04:52:00,57.0,54.0,30.13,SSE,150,0.0,0.0,91,0.00,,,0.00,,2013-07-26 08:52:00,
2013-07-26 05:02:00,57.0,55.0,30.14,SSE,151,1.0,2.0,92,0.00,,,0.00,,2013-07-26 09:02:00,
2013-07-26 05:12:00,57.0,55.0,30.14,SSE,151,1.0,2.0,92,0.00,,,0.00,,2013-07-26 09:12:00,
2013-07-26 05:22:00,57.0,55.0,30.14,SSE,150,0.0,1.0,92,0.00,,,0.00,,2013-07-26 09:22:00,
2013-07-26 05:32:00,57.0,55.0,30.14,SSE,150,0.0,2.0,92,0.00,,,0.00,,2013-07-26 09:32:00,
2013-07-26 05:43:00,56.0,54.0,30.14,SSE,150,0.0,0.0,92,0.00,,,0.00,,2013-07-26 09:43:00,
2013-07-26 05:52:00,56.0,54.0,30.14,SSE,150,0.0,0.0,92,0.00,,,0.00,,2013-07-26 09:52:00,
2013-07-26 06:02:00,55.0,53.0,30.14,SSE,150,0.0,0.0,92,0.00,,,0.00,,2013-07-26 10:02:00,
2013-07-26 06:12:00,55.0,53.0,30.13,SSE,150,0.0,0.0,92,0.00,,,0.00,,2013-07-26 10:12:00,
2013-07-26 06:22:00,55.0,53.0,30.13,SSE,150,0.0,0.0,92,0.00,,,0.00,,2013-07-26 10:22:00,
2013-07-26 06:33:00,55.0,53.0,30.13,SSE,150,0.0,0.0,92,0.00,,,0.00,,2013-07-26 10:33:00,
2013-07-26 06:42:00,55.0,53.0,30.13,SSE,150,0.0,1.0,93,0.00,,,0.00,,2013-07-26 10:42:00,
2013-07-26 06:52:00,55.0,53.0,30.13,SSE,151,0.0,0.0,93,0.00,,,0.00,,2013-07-26 10:52:00,
2013-07-26 07:12:00,54.0,52.0,30.14,SE,130,0.0,0.0,93,0.00,,,0.00,,2013-07-26 11:12:00,
2013-07-26 07:22:00,54.0,52.0,30.14,SE,130,0.0,0.0,93,0.00,,,0.00,,2013-07-26 11:22:00,
2013-07-26 07:32:00,54.0,52.0,30.14,SE,130,0.0,0.0,93,0.00,,,0.00,,2013-07-26 11:32:00,
2013-07-26 07:43:00,57.0,56.0,30.14,SE,130,0.0,0.0,95,0.00,,,0.00,,2013-07-26 11:43:00,
2013-07-26 07:52:00,57.0,56.0,30.14,SE,130,0.0,0.0,95,0.00,,,0.00,,2013-07-26 11:52:00,
2013-07-26 08:02:00,57.0,56.0,30.14,SE,130,0.0,0.0,95,0.00,,,0.00,,2013-07-26 12:02:00,
2013-07-26 08:12:00,60.0,58.0,30.15,SE,130,0.0,0.0,94,0.00,,,0.00,,2013-07-26 12:12:00,
2013-07-26 08:22:00,60.0,58.0,30.15,SE,130,0.0,1.0,93,0.00,,,0.00,,2013-07-26 12:22:00,
2013-07-26 08:33:00,61.0,59.0,30.15,SE,130,0.0,1.0,92,0.00,,,0.00,,2013-07-26 12:33:00,
2013-07-26 08:53:00,63.0,60.0,30.15,South,169,0.0,3.0,90,0.00,,,0.00,,2013-07-26 12:53:00,
2013-07-26 09:43:00,67.0,61.0,30.15,SE,138,4.0,8.0,82,0.00,,,0.00,,2013-07-26 13:43:00,
2013-07-26 10:32:00,71.0,62.0,30.15,South,191,3.0,6.0,73,0.00,,,0.00,,2013-07-26 14:32:00,
2013-07-26 10:43:00,72.0,62.0,30.15,SE,126,2.0,6.0,70,0.00,,,0.00,,2013-07-26 14:43:00,
2013-07-26 10:53:00,72.0,60.0,30.15,SSE,161,3.0,6.0,67,0.00,,,0.00,,2013-07-26 14:53:00,
2013-07-26 11:22:00,73.0,61.0,30.14,SSE,159,0.0,6.0,65,0.00,,,0.00,,2013-07-26 15:22:00,
2013-07-26 11:33:00,73.0,61.0,30.15,South,176,3.0,6.0,65,0.00,,,0.00,,2013-07-26 15:33:00,
2013-07-26 11:43:00,73.0,61.0,30.15,SSE,163,2.0,7.0,67,0.00,,,0.00,,2013-07-26 15:43:00,
2013-07-26 11:53:00,73.0,61.0,30.15,SSE,163,2.0,7.0,67,0.00,,,0.00,,2013-07-26 15:53:00,
2013-07-26 12:43:00,74.0,61.0,30.14,SSE,156,3.0,5.0,64,0.00,,,0.00,,2013-07-26 16:43:00,
2013-07-26 12:54:00,75.0,63.0,30.14,SSE,165,3.0,9.0,66,0.00,,,0.00,,2013-07-26 16:54:00,
2013-07-26 13:02:00,75.0,62.0,30.13,SSE,152,1.0,9.0,64,0.00,,,0.00,,2013-07-26 17:02:00,
2013-07-26 13:22:00,76.0,62.0,30.12,SE,133,1.0,7.0,61,0.00,,,0.00,,2013-07-26 17:22:00,
2013-07-26 13:33:00,76.0,62.0,30.12,SE,133,1.0,7.0,61,0.00,,,0.00,,2013-07-26 17:33:00,
2013-07-26 13:43:00,76.0,61.0,30.12,SE,138,2.0,11.0,60,0.00,,,0.00,,2013-07-26 17:43:00,
2013-07-26 13:53:00,76.0,63.0,30.11,South,186,5.0,7.0,65,0.00,,,0.00,,2013-07-26 17:53:00,
2013-07-26 14:23:00,77.0,64.0,30.10,SSW,192,2.0,7.0,64,0.00,,,0.00,,2013-07-26 18:23:00,
2013-07-26 14:33:00,77.0,63.0,30.10,ESE,123,0.0,9.0,61,0.00,,,0.00,,2013-07-26 18:33:00,
2013-07-26 14:44:00,77.0,63.0,30.10,SE,140,4.0,12.0,61,0.00,,,0.00,,2013-07-26 18:44:00,
2013-07-26 14:52:00,78.0,64.0,30.09,SE,144,4.0,13.0,63,0.00,,,0.00,,2013-07-26 18:52:00,
2013-07-26 15:12:00,78.0,64.0,30.09,SE,138,7.0,12.0,62,0.00,,,0.00,,2013-07-26 19:12:00,
2013-07-26 15:22:00,78.0,63.0,30.08,SE,125,7.0,12.0,60,0.00,,,0.00,,2013-07-26 19:22:00,
2013-07-26 15:32:00,78.0,62.0,30.08,South,183,6.0,11.0,59,0.00,,,0.00,,2013-07-26 19:32:00,
2013-07-26 15:43:00,79.0,63.0,30.08,SE,130,4.0,11.0,58,0.00,,,0.00,,2013-07-26 19:43:00,
2013-07-26 15:52:00,79.0,63.0,30.07,SSE,165,7.0,17.0,58,0.00,,,0.00,,2013-07-26 19:52:00,
2013-07-26 16:12:00,79.0,62.0,30.06,ESE,105,6.0,11.0,57,0.00,,,0.00,,2013-07-26 20:12:00,
2013-07-26 16:22:00,79.0,63.0,30.06,SSE,148,4.0,13.0,59,0.00,,,0.00,,2013-07-26 20:22:00,
2013-07-26 16:32:00,79.0,63.0,30.06,SSE,150,4.0,12.0,58,0.00,,,0.00,,2013-07-26 20:32:00,
2013-07-26 16:43:00,79.0,63.0,30.05,South,187,8.0,12.0,58,0.00,,,0.00,,2013-07-26 20:43:00,
2013-07-26 16:53:00,79.0,63.0,30.05,South,175,4.0,11.0,59,0.00,,,0.00,,2013-07-26 20:53:00,
2013-07-26 17:12:00,78.0,62.0,30.05,SE,128,4.0,9.0,58,0.00,,,0.00,,2013-07-26 21:12:00,
2013-07-26 17:22:00,78.0,62.0,30.05,ESE,122,6.0,11.0,58,0.00,,,0.00,,2013-07-26 21:22:00,
2013-07-26 17:32:00,78.0,62.0,30.04,South,170,9.0,12.0,58,0.00,,,0.00,,2013-07-26 21:32:00,
2013-07-26 17:53:00,78.0,62.0,30.04,SE,142,5.0,11.0,57,0.00,,,0.00,,2013-07-26 21:53:00,
2013-07-26 18:02:00,78.0,63.0,30.04,South,187,4.0,10.0,60,0.00,,,0.00,,2013-07-26 22:02:00,
2013-07-26 18:22:00,78.0,63.0,30.04,South,190,4.0,7.0,61,0.00,,,0.00,,2013-07-26 22:22:00,
2013-07-26 18:33:00,78.0,63.0,30.03,SE,137,4.0,10.0,60,0.00,,,0.00,,2013-07-26 22:33:00,
2013-07-26 18:53:00,78.0,64.0,30.03,SSE,167,3.0,7.0,62,0.00,,,0.00,,2013-07-26 22:53:00,
2013-07-26 19:12:00,78.0,64.0,30.02,South,183,3.0,10.0,62,0.00,,,0.00,,2013-07-26 23:12:00,
2013-07-26 19:22:00,78.0,63.0,30.02,South,169,3.0,10.0,61,0.00,,,0.00,,2013-07-26 23:22:00,
2013-07-26 19:32:00,77.0,63.0,30.02,South,176,4.0,11.0,61,0.00,,,0.00,,2013-07-26 23:32:00,
2013-07-26 19:43:00,77.0,63.0,30.03,SE,131,2.0,9.0,63,0.00,,,0.00,,2013-07-26 23:43:00,
2013-07-26 19:53:00,76.0,62.0,30.03,South,182,4.0,10.0,63,0.00,,,0.00,,2013-07-26 23:53:00,
2013-07-26 20:02:00,76.0,63.0,30.03,South,188,3.0,9.0,64,0.00,,,0.00,,2013-07-27 00:02:00,
2013-07-26 20:12:00,75.0,62.0,30.03,South,170,3.0,8.0,64,0.00,,,0.00,,2013-07-27 00:12:00,
2013-07-26 20:22:00,75.0,62.0,30.03,SSW,192,3.0,6.0,65,0.00,,,0.00,,2013-07-27 00:22:00,
2013-07-26 20:32:00,75.0,62.0,30.02,South,170,1.0,6.0,65,0.00,,,0.00,,2013-07-27 00:32:00,
2013-07-26 20:43:00,74.0,62.0,30.02,South,169,0.0,4.0,67,0.00,,,0.00,,2013-07-27 00:43:00,
2013-07-26 20:53:00,74.0,62.0,30.02,South,169,0.0,4.0,67,0.00,,,0.00,,2013-07-27 00:53:00,
2013-07-26 21:02:00,73.0,63.0,30.02,SSE,168,1.0,4.0,70,0.00,,,0.00,,2013-07-27 01:02:00,
2013-07-26 21:12:00,73.0,63.0,30.02,South,183,1.0,5.0,71,0.00,,,0.00,,2013-07-27 01:12:00,
2013-07-26 21:22:00,72.0,63.0,30.02,SE,138,0.0,4.0,73,0.00,,,0.00,,2013-07-27 01:22:00,
2013-07-26 21:32:00,72.0,63.0,30.02,SSE,155,2.0,4.0,73,0.00,,,0.00,,2013-07-27 01:32:00,
2013-07-26 21:43:00,72.0,63.0,30.02,SSE,155,2.0,4.0,73,0.00,,,0.00,,2013-07-27 01:43:00,
2013-07-26 21:53:00,72.0,63.0,30.02,SSE,155,0.0,3.0,74,0.00,,,0.00,,2013-07-27 01:53:00,
2013-07-26 22:02:00,72.0,63.0,30.02,SSE,155,0.0,3.0,74,0.00,,,0.00,,2013-07-27 02:02:00,
2013-07-26 22:12:00,70.0,62.0,30.01,SSE,155,0.0,4.0,76,0.00,,,0.00,,2013-07-27 02:12:00,
2013-07-26 22:22:00,70.0,62.0,30.01,SSE,155,1.0,3.0,76,0.00,,,0.00,,2013-07-27 02:22:00,
2013-07-26 22:32:00,70.0,62.0,30.01,South,169,0.0,3.0,77,0.00,,,0.00,,2013-07-27 02:32:00,
2013-07-26 22:43:00,70.0,62.0,30.01,SSE,163,0.0,3.0,77,0.00,,,0.00,,2013-07-27 02:43:00,
2013-07-26 22:53:00,70.0,62.0,30.01,SSE,163,0.0,3.0,77,0.00,,,0.00,,2013-07-27 02:53:00,
2013-07-26 23:03:00,70.0,63.0,30.01,SSE,148,1.0,3.0,78,0.00,,,0.00,,2013-07-27 03:03:00,
2013-07-26 23:12:00,70.0,63.0,30.01,SSE,148,1.0,2.0,79,0.00,,,0.00,,2013-07-27 03:12:00,
2013-07-26 23:44:00,70.0,63.0,30.01,South,169,2.0,4.0,78,0.00,,,0.00,,2013-07-27 03:44:00,
2013-07-26 23:52:00,70.0,63.0,30.00,SSE,153,2.0,6.0,79,0.00,,,0.00,,2013-07-27 03:52:00,